sensor_id;sensor_type;location;lat;lon;timestamp;pressure;altitude;pressure_sealevel;temperature;humidity
76044;BME280;64740;34.694;33.088;2023-02-13T00:02:01;1047.5;;;13.3;41.5
76044;BME280;64740;34.694;33.088;2023-02-13T00:06:39;1047.5;;;13.2;41.4
76044;BME280;64740;34.694;33.088;2023-02-13T00:11:23;1047.5;;;13.2;41.3
76044;BME280;64740;34.694;33.088;2023-02-13T00:17:01;1047.4;;;13.3;41.5
76044;BME280;64740;34.694;33.088;2023-02-13T00:21:39;1047.4;;;13.3;41.3
76044;BME280;64740;34.694;33.088;2023-02-13T00:27:03;1047.4;;;13.3;41.1
76044;BME280;64740;34.694;33.088;2023-02-13T00:31:14;1047.4;;;13.3;41.1
76044;BME280;64740;34.694;33.088;2023-02-13T00:37:01;1047.4;;;13.3;41.1
76044;BME280;64740;34.694;33.088;2023-02-13T00:41:13;1047.4;;;13.3;41
76044;BME280;64740;34.694;33.088;2023-02-13T00:47:03;1047.4;;;13.3;41.1
76044;BME280;64740;34.694;33.088;2023-02-13T00:51:13;1047.4;;;13.3;41
76044;BME280;64740;34.694;33.088;2023-02-13T00:57:01;1047.4;;;13.3;41.1
76044;BME280;64740;34.694;33.088;2023-02-13T01:01:27;1047.4;;;13.2;40.7
76044;BME280;64740;34.694;33.088;2023-02-13T01:06:59;1047.4;;;13.1;41.2
76044;BME280;64740;34.694;33.088;2023-02-13T01:11:53;1047.5;;;13.1;41
76044;BME280;64740;34.694;33.088;2023-02-13T01:16:51;1047.5;;;13.1;41.1
76044;BME280;64740;34.694;33.088;2023-02-13T01:21:47;1047.5;;;13.1;41
76044;BME280;64740;34.694;33.088;2023-02-13T01:26:15;1047.5;;;13.1;41
76044;BME280;64740;34.694;33.088;2023-02-13T01:31:51;1047.5;;;13.1;41.1
76044;BME280;64740;34.694;33.088;2023-02-13T01:36:27;1047.4;;;13.1;40.9
76044;BME280;64740;34.694;33.088;2023-02-13T01:41:49;1047.4;;;13;40.6
76044;BME280;64740;34.694;33.088;2023-02-13T01:46:14;1047.5;;;12.9;40.7
76044;BME280;64740;34.694;33.088;2023-02-13T01:51:49;1047.5;;;12.8;40.7
76044;BME280;64740;34.694;33.088;2023-02-13T01:56:14;1047.5;;;12.8;41
76044;BME280;64740;34.694;33.088;2023-02-13T02:02:01;1047.5;;;12.8;41.1
76044;BME280;64740;34.694;33.088;2023-02-13T02:06:51;1047.5;;;12.9;41.1
76044;BME280;64740;34.694;33.088;2023-02-13T02:11:52;1047.5;;;12.9;40.7
76044;BME280;64740;34.694;33.088;2023-02-13T02:17:03;1047.5;;;12.9;40.6
76044;BME280;64740;34.694;33.088;2023-02-13T02:26:53;1047.5;;;12.9;40.4
76044;BME280;64740;34.694;33.088;2023-02-13T02:32:36;1047.5;;;12.8;40.4
76044;BME280;64740;34.694;33.088;2023-02-13T02:36:55;1047.5;;;12.8;40.5
76044;BME280;64740;34.694;33.088;2023-02-13T02:41:14;1047.6;;;12.8;40.6
76044;BME280;64740;34.694;33.088;2023-02-13T02:47:06;1047.6;;;12.8;40.2
76044;BME280;64740;34.694;33.088;2023-02-13T02:51:38;1047.6;;;12.8;40.1
76044;BME280;64740;34.694;33.088;2023-02-13T02:56:49;1047.7;;;12.7;40
76044;BME280;64740;34.694;33.088;2023-02-13T03:01:51;1047.7;;;12.8;40.2
76044;BME280;64740;34.694;33.088;2023-02-13T03:06:51;1047.7;;;12.9;40
76044;BME280;64740;34.694;33.088;2023-02-13T03:11:13;1047.8;;;13;40.2
76044;BME280;64740;34.694;33.088;2023-02-13T03:16:14;1047.8;;;13.1;39.9
76044;BME280;64740;34.694;33.088;2023-02-13T03:22:02;1047.9;;;13.1;39.8
76044;BME280;64740;34.694;33.088;2023-02-13T03:26:38;1047.9;;;13.2;39.6
76044;BME280;64740;34.694;33.088;2023-02-13T03:31:52;1047.9;;;13.2;39.6
76044;BME280;64740;34.694;33.088;2023-02-13T03:36:59;1047.9;;;13.2;39.5
76044;BME280;64740;34.694;33.088;2023-02-13T03:42:00;1047.9;;;13.3;39.6
76044;BME280;64740;34.694;33.088;2023-02-13T03:46:39;1048;;;13.2;39.3
76044;BME280;64740;34.694;33.088;2023-02-13T03:52:04;1048;;;13.2;39.5
76044;BME280;64740;34.694;33.088;2023-02-13T03:56:27;1048;;;13.3;39.5
76044;BME280;64740;34.694;33.088;2023-02-13T04:02:05;1048;;;13.3;39.5
76044;BME280;64740;34.694;33.088;2023-02-13T04:06:41;1048;;;13.3;39.3
76044;BME280;64740;34.694;33.088;2023-02-13T04:11:51;1048.1;;;13.3;39.4
76044;BME280;64740;34.694;33.088;2023-02-13T04:17:04;1048.1;;;13.3;39.3
76044;BME280;64740;34.694;33.088;2023-02-13T04:21:28;1048.1;;;13.2;39.5
76044;BME280;64740;34.694;33.088;2023-02-13T04:26:51;1048.1;;;13.2;39.4
76044;BME280;64740;34.694;33.088;2023-02-13T04:31:59;1048.2;;;13.3;39.1
76044;BME280;64740;34.694;33.088;2023-02-13T04:36:57;1048.2;;;13.4;39
76044;BME280;64740;34.694;33.088;2023-02-13T04:41:27;1048.3;;;13.4;38.8
76044;BME280;64740;34.694;33.088;2023-02-13T04:47:01;1048.3;;;13.3;38.6
76044;BME280;64740;34.694;33.088;2023-02-13T04:51:21;1048.4;;;13.3;38.7
76044;BME280;64740;34.694;33.088;2023-02-13T04:56:25;1048.4;;;13.2;38.9
76044;BME280;64740;34.694;33.088;2023-02-13T05:01:59;1048.4;;;13.2;39
76044;BME280;64740;34.694;33.088;2023-02-13T05:06:37;1048.4;;;13.2;39.2
76044;BME280;64740;34.694;33.088;2023-02-13T05:11:39;1048.4;;;13.1;39.2
76044;BME280;64740;34.694;33.088;2023-02-13T05:16:13;1048.4;;;13.1;39.3
76044;BME280;64740;34.694;33.088;2023-02-13T05:21:35;1048.4;;;13.1;39.3
76044;BME280;64740;34.694;33.088;2023-02-13T05:27:01;1048.5;;;13.1;39.2
76044;BME280;64740;34.694;33.088;2023-02-13T05:31:39;1048.5;;;13.1;39.3
76044;BME280;64740;34.694;33.088;2023-02-13T05:36:13;1048.6;;;13.3;39.3
76044;BME280;64740;34.694;33.088;2023-02-13T05:42:01;1048.7;;;13.3;39.4
76044;BME280;64740;34.694;33.088;2023-02-13T05:46:47;1048.7;;;13.4;39.2
76044;BME280;64740;34.694;33.088;2023-02-13T05:51:13;1048.7;;;13.6;39.2
76044;BME280;64740;34.694;33.088;2023-02-13T05:56:35;1048.7;;;13.7;39.1
76044;BME280;64740;34.694;33.088;2023-02-13T06:01:25;1048.8;;;13.9;39
76044;BME280;64740;34.694;33.088;2023-02-13T06:06:37;1048.8;;;14;38.8
76044;BME280;64740;34.694;33.088;2023-02-13T06:11:59;1048.8;;;14.1;38.7
76044;BME280;64740;34.694;33.088;2023-02-13T06:16:39;1048.8;;;14.3;38.6
76044;BME280;64740;34.694;33.088;2023-02-13T06:21:59;1048.8;;;14.4;38.5
76044;BME280;64740;34.694;33.088;2023-02-13T06:26:25;1048.8;;;14.5;38.2
76044;BME280;64740;34.694;33.088;2023-02-13T06:31:59;1048.7;;;14.6;38.2
76044;BME280;64740;34.694;33.088;2023-02-13T06:36:13;1048.7;;;14.7;38.2
76044;BME280;64740;34.694;33.088;2023-02-13T06:41:43;1048.7;;;14.9;38.3
76044;BME280;64740;34.694;33.088;2023-02-13T06:46:37;1048.7;;;15.1;38.1
76044;BME280;64740;34.694;33.088;2023-02-13T06:51:59;1048.7;;;15.3;37.8
76044;BME280;64740;34.694;33.088;2023-02-13T06:56:13;1048.8;;;15.5;37.5
76044;BME280;64740;34.694;33.088;2023-02-13T07:01:57;1048.8;;;15.7;37
76044;BME280;64740;34.694;33.088;2023-02-13T07:06:59;1048.7;;;15.9;36.8
76044;BME280;64740;34.694;33.088;2023-02-13T07:11:45;1048.7;;;16.1;36.4
76044;BME280;64740;34.694;33.088;2023-02-13T07:16:43;1048.7;;;16.3;36.4
76044;BME280;64740;34.694;33.088;2023-02-13T07:21:25;1048.7;;;16.5;35.4
76044;BME280;64740;34.694;33.088;2023-02-13T07:26:49;1048.7;;;16.7;35.1
76044;BME280;64740;34.694;33.088;2023-02-13T07:31:33;1048.7;;;16.9;34.6
76044;BME280;64740;34.694;33.088;2023-02-13T07:36:45;1048.8;;;16.9;34.4
76044;BME280;64740;34.694;33.088;2023-02-13T07:41:13;1048.8;;;17;34.4
76044;BME280;64740;34.694;33.088;2023-02-13T07:46:47;1048.8;;;17;34
76044;BME280;64740;34.694;33.088;2023-02-13T07:51:13;1048.8;;;17.1;34.3
76044;BME280;64740;34.694;33.088;2023-02-13T07:57:03;1048.8;;;17.2;34.3
76044;BME280;64740;34.694;33.088;2023-02-13T08:01:39;1048.9;;;17.2;34.2
76044;BME280;64740;34.694;33.088;2023-02-13T08:06:49;1048.9;;;17.2;34.3
76044;BME280;64740;34.694;33.088;2023-02-13T08:12:04;1048.9;;;17.3;34.1
76044;BME280;64740;34.694;33.088;2023-02-13T08:16:13;1048.8;;;17.4;34
76044;BME280;64740;34.694;33.088;2023-02-13T08:22:01;1048.8;;;17.4;33.9
76044;BME280;64740;34.694;33.088;2023-02-13T08:26:25;1048.8;;;17.4;33.7
76044;BME280;64740;34.694;33.088;2023-02-13T08:31:45;1048.8;;;17.4;33.9
76044;BME280;64740;34.694;33.088;2023-02-13T08:36:13;1048.8;;;17.4;34.3
76044;BME280;64740;34.694;33.088;2023-02-13T08:41:47;1048.7;;;17.5;34.3
76044;BME280;64740;34.694;33.088;2023-02-13T08:46:37;1048.7;;;17.6;34.6
76044;BME280;64740;34.694;33.088;2023-02-13T08:52:01;1048.7;;;17.6;34.4
76044;BME280;64740;34.694;33.088;2023-02-13T08:56:45;1048.7;;;17.6;34.5
76044;BME280;64740;34.694;33.088;2023-02-13T09:01:47;1048.6;;;17.7;34.9
76044;BME280;64740;34.694;33.088;2023-02-13T09:06:37;1048.6;;;17.9;34.5
76044;BME280;64740;34.694;33.088;2023-02-13T09:11:13;1048.5;;;18;34.7
76044;BME280;64740;34.694;33.088;2023-02-13T09:16:49;1048.5;;;18.1;34.8
76044;BME280;64740;34.694;33.088;2023-02-13T09:21:13;1048.4;;;18.2;35
76044;BME280;64740;34.694;33.088;2023-02-13T09:26:47;1048.3;;;18.3;34.6
76044;BME280;64740;34.694;33.088;2023-02-13T09:31:25;1048.3;;;18.4;35.1
76044;BME280;64740;34.694;33.088;2023-02-13T09:36:57;1048.2;;;18.5;34.9
76044;BME280;64740;34.694;33.088;2023-02-13T09:41:25;1048.2;;;18.5;35.1
76044;BME280;64740;34.694;33.088;2023-02-13T09:46:39;1048;;;18.5;34.7
76044;BME280;64740;34.694;33.088;2023-02-13T09:51:46;1048;;;18.5;35
76044;BME280;64740;34.694;33.088;2023-02-13T09:56:58;1047.9;;;18.4;34.9
76044;BME280;64740;34.694;33.088;2023-02-13T10:01:15;1047.8;;;18.4;35.1
76044;BME280;64740;34.694;33.088;2023-02-13T10:06:14;1047.8;;;18.4;35.3
76044;BME280;64740;34.694;33.088;2023-02-13T10:12:03;1047.8;;;18.4;35.9
76044;BME280;64740;34.694;33.088;2023-02-13T10:16:14;1047.7;;;18.5;35.7
76044;BME280;64740;34.694;33.088;2023-02-13T10:21:50;1047.6;;;18.6;35.8
76044;BME280;64740;34.694;33.088;2023-02-13T10:26:57;1047.5;;;18.7;35.7
76044;BME280;64740;34.694;33.088;2023-02-13T10:31:58;1047.4;;;18.7;35.8
76044;BME280;64740;34.694;33.088;2023-02-13T10:36:20;1047.3;;;18.8;35.8
76044;BME280;64740;34.694;33.088;2023-02-13T10:41:59;1047.2;;;18.9;35.7
76044;BME280;64740;34.694;33.088;2023-02-13T10:46:33;1047.2;;;18.9;35.7
76044;BME280;64740;34.694;33.088;2023-02-13T10:51:14;1047.2;;;19.1;35.8
76044;BME280;64740;34.694;33.088;2023-02-13T10:56:37;1047.1;;;19.3;36.1
76044;BME280;64740;34.694;33.088;2023-02-13T11:01:14;1047;;;19.5;35.8
76044;BME280;64740;34.694;33.088;2023-02-13T11:06:23;1047;;;19.6;35.4
76044;BME280;64740;34.694;33.088;2023-02-13T11:11:30;1047;;;19.7;34.6
76044;BME280;64740;34.694;33.088;2023-02-13T11:16:41;1047;;;19.4;35.3
76044;BME280;64740;34.694;33.088;2023-02-13T11:21:58;1047;;;19.1;35.4
76044;BME280;64740;34.694;33.088;2023-02-13T11:26:28;1046.9;;;19.1;35.4
76044;BME280;64740;34.694;33.088;2023-02-13T11:31:13;1046.8;;;19.6;35.3
76044;BME280;64740;34.694;33.088;2023-02-13T11:36:54;1046.8;;;19.8;35
76044;BME280;64740;34.694;33.088;2023-02-13T11:41:42;1046.8;;;19.6;35.1
76044;BME280;64740;34.694;33.088;2023-02-13T11:46:13;1046.8;;;19.6;35.3
76044;BME280;64740;34.694;33.088;2023-02-13T11:51:34;1046.8;;;19.4;35.8
76044;BME280;64740;34.694;33.088;2023-02-13T11:56:12;1046.8;;;19.4;35.9
76044;BME280;64740;34.694;33.088;2023-02-13T12:01:33;1046.8;;;19.2;36.8
76044;BME280;64740;34.694;33.088;2023-02-13T12:06:57;1046.8;;;19.3;37.1
76044;BME280;64740;34.694;33.088;2023-02-13T12:11:37;1046.8;;;19.3;36.4
76044;BME280;64740;34.694;33.088;2023-02-13T12:16:56;1046.8;;;19.1;36.4
76044;BME280;64740;34.694;33.088;2023-02-13T12:21:25;1046.8;;;18.9;36.3
76044;BME280;64740;34.694;33.088;2023-02-13T12:26:33;1046.8;;;19;36.2
76044;BME280;64740;34.694;33.088;2023-02-13T12:31:58;1046.8;;;19;36.5
76044;BME280;64740;34.694;33.088;2023-02-13T12:36:44;1046.8;;;18.7;37.2
76044;BME280;64740;34.694;33.088;2023-02-13T12:41:14;1046.8;;;18.5;37.4
76044;BME280;64740;34.694;33.088;2023-02-13T12:46:34;1046.8;;;18.3;37.2
76044;BME280;64740;34.694;33.088;2023-02-13T12:51:18;1046.8;;;18.1;38
76044;BME280;64740;34.694;33.088;2023-02-13T12:56:14;1046.8;;;18;38.6
76044;BME280;64740;34.694;33.088;2023-02-13T13:01:53;1046.7;;;18.1;38.2
76044;BME280;64740;34.694;33.088;2023-02-13T13:06:43;1046.7;;;18.3;37.8
76044;BME280;64740;34.694;33.088;2023-02-13T13:12:08;1046.7;;;18.9;37.5
76044;BME280;64740;34.694;33.088;2023-02-13T13:16:19;1046.6;;;19.1;36.8
76044;BME280;64740;34.694;33.088;2023-02-13T13:21:59;1046.6;;;18.8;36.9
76044;BME280;64740;34.694;33.088;2023-02-13T13:26:26;1046.6;;;18.7;37.3
76044;BME280;64740;34.694;33.088;2023-02-13T13:31:23;1046.6;;;18.5;37.6
76044;BME280;64740;34.694;33.088;2023-02-13T13:36:13;1046.6;;;18.4;37.7
76044;BME280;64740;34.694;33.088;2023-02-13T13:41:59;1046.6;;;18.4;37.7
76044;BME280;64740;34.694;33.088;2023-02-13T13:46:14;1046.6;;;18.4;37.3
76044;BME280;64740;34.694;33.088;2023-02-13T13:52:31;1046.7;;;18.3;37.6
76044;BME280;64740;34.694;33.088;2023-02-13T13:57:07;1046.6;;;18;38.2
76044;BME280;64740;34.694;33.088;2023-02-13T14:01:47;1046.6;;;17.8;38.5
76044;BME280;64740;34.694;33.088;2023-02-13T14:07:20;1046.6;;;17.6;38.9
76044;BME280;64740;34.694;33.088;2023-02-13T14:11:30;1046.6;;;17.5;39.7
76044;BME280;64740;34.694;33.088;2023-02-13T14:16:49;1046.7;;;17.4;39.4
76044;BME280;64740;34.694;33.088;2023-02-13T14:21:25;1046.7;;;17.4;39.8
76044;BME280;64740;34.694;33.088;2023-02-13T14:26:48;1046.6;;;17.3;40
76044;BME280;64740;34.694;33.088;2023-02-13T14:31:19;1046.6;;;17.2;40
76044;BME280;64740;34.694;33.088;2023-02-13T14:36:48;1046.7;;;17.2;39.5
76044;BME280;64740;34.694;33.088;2023-02-13T14:41:40;1046.7;;;17.2;39.7
76044;BME280;64740;34.694;33.088;2023-02-13T14:47:02;1046.7;;;17.1;40
76044;BME280;64740;34.694;33.088;2023-02-13T14:51:49;1046.7;;;17;39.8
76044;BME280;64740;34.694;33.088;2023-02-13T14:56:49;1046.8;;;17;39.1
76044;BME280;64740;34.694;33.088;2023-02-13T15:01:58;1046.8;;;16.6;39.4
76044;BME280;64740;34.694;33.088;2023-02-13T15:06:17;1046.8;;;15.6;42.1
76044;BME280;64740;34.694;33.088;2023-02-13T15:11:40;1047;;;14.9;42.8
76044;BME280;64740;34.694;33.088;2023-02-13T15:16:23;1047;;;14.6;43.4
76044;BME280;64740;34.694;33.088;2023-02-13T15:21:50;1047;;;14.3;44.6
76044;BME280;64740;34.694;33.088;2023-02-13T15:26:17;1047;;;14.2;44.6
76044;BME280;64740;34.694;33.088;2023-02-13T15:31:59;1047.1;;;14.1;46.2
76044;BME280;64740;34.694;33.088;2023-02-13T15:36:49;1047.1;;;14;44.3
76044;BME280;64740;34.694;33.088;2023-02-13T15:42:02;1047.1;;;14;42.2
76044;BME280;64740;34.694;33.088;2023-02-13T15:46:49;1047.2;;;14;41.4
76044;BME280;64740;34.694;33.088;2023-02-13T15:52:02;1047.2;;;14;41.2
76044;BME280;64740;34.694;33.088;2023-02-13T15:56:13;1047.2;;;14;41.7
76044;BME280;64740;34.694;33.088;2023-02-13T16:01:13;1047.3;;;14;42.9
76044;BME280;64740;34.694;33.088;2023-02-13T16:06:53;1047.3;;;13.8;44.6
76044;BME280;64740;34.694;33.088;2023-02-13T16:11:17;1047.4;;;13.6;45.5
76044;BME280;64740;34.694;33.088;2023-02-13T16:16:48;1047.4;;;13.4;46.4
76044;BME280;64740;34.694;33.088;2023-02-13T16:22:04;1047.5;;;13.2;46.7
76044;BME280;64740;34.694;33.088;2023-02-13T16:27:01;1047.5;;;13;47
76044;BME280;64740;34.694;33.088;2023-02-13T16:31:13;1047.5;;;12.9;47.4
76044;BME280;64740;34.694;33.088;2023-02-13T16:36:57;1047.6;;;12.8;47.4
76044;BME280;64740;34.694;33.088;2023-02-13T16:42:01;1047.7;;;12.7;47.6
76044;BME280;64740;34.694;33.088;2023-02-13T16:47:02;1047.7;;;12.7;47.9
76044;BME280;64740;34.694;33.088;2023-02-13T16:51:29;1047.8;;;12.6;48.2
76044;BME280;64740;34.694;33.088;2023-02-13T16:56:13;1047.8;;;12.5;48.9
76044;BME280;64740;34.694;33.088;2023-02-13T17:02:29;1047.8;;;12.3;49.8
76044;BME280;64740;34.694;33.088;2023-02-13T17:06:25;1047.9;;;12.2;49.9
76044;BME280;64740;34.694;33.088;2023-02-13T17:11:35;1047.9;;;12.1;49.6
76044;BME280;64740;34.694;33.088;2023-02-13T17:17:01;1047.9;;;12.1;48
76044;BME280;64740;34.694;33.088;2023-02-13T17:21:51;1047.9;;;12.1;47.4
76044;BME280;64740;34.694;33.088;2023-02-13T17:26:47;1047.9;;;12.1;46.7
76044;BME280;64740;34.694;33.088;2023-02-13T17:51:13;1047.9;;;12;45.8
76044;BME280;64740;34.694;33.088;2023-02-13T17:56:37;1048;;;11.8;44.1
76044;BME280;64740;34.694;33.088;2023-02-13T18:01:25;1048.1;;;11.8;43.9
76044;BME280;64740;34.694;33.088;2023-02-13T18:06:13;1048.1;;;11.8;43.8
76044;BME280;64740;34.694;33.088;2023-02-13T18:11:59;1048.1;;;11.8;43.5
76044;BME280;64740;34.694;33.088;2023-02-13T18:16:39;1048.1;;;11.8;43.4
76044;BME280;64740;34.694;33.088;2023-02-13T18:21:35;1048.1;;;11.7;43.3
76044;BME280;64740;34.694;33.088;2023-02-13T18:27:04;1048.1;;;11.7;43.1
76044;BME280;64740;34.694;33.088;2023-02-13T18:31:43;1048.2;;;11.7;43.1
76044;BME280;64740;34.694;33.088;2023-02-13T18:36:39;1048.2;;;11.7;43.2
76044;BME280;64740;34.694;33.088;2023-02-13T18:41:35;1048.2;;;11.6;43.2
76044;BME280;64740;34.694;33.088;2023-02-13T18:47:02;1048.3;;;11.6;43.3
76044;BME280;64740;34.694;33.088;2023-02-13T18:51:37;1048.3;;;11.5;43.4
76044;BME280;64740;34.694;33.088;2023-02-13T18:57:01;1048.2;;;11.9;43.3
76044;BME280;64740;34.694;33.088;2023-02-13T19:01:33;1048.2;;;12.4;42.7
76044;BME280;64740;34.694;33.088;2023-02-13T19:06:59;1048.3;;;12.8;41.4
76044;BME280;64740;34.694;33.088;2023-02-13T19:11:13;1048.3;;;12.5;41.3
76044;BME280;64740;34.694;33.088;2023-02-13T19:17:01;1048.3;;;11.9;42.5
76044;BME280;64740;34.694;33.088;2023-02-13T19:21:13;1048.4;;;11.5;43.3
76044;BME280;64740;34.694;33.088;2023-02-13T19:26:26;1048.3;;;11.1;44.4
76044;BME280;64740;34.694;33.088;2023-02-13T19:31:37;1048.3;;;11;44.9
76044;BME280;64740;34.694;33.088;2023-02-13T19:36:57;1048.3;;;10.9;45.1
76044;BME280;64740;34.694;33.088;2023-02-13T19:41:23;1048.3;;;10.8;45.4
76044;BME280;64740;34.694;33.088;2023-02-13T19:46:59;1048.3;;;10.7;45.8
76044;BME280;64740;34.694;33.088;2023-02-13T19:51:59;1048.3;;;10.7;46.3
76044;BME280;64740;34.694;33.088;2023-02-13T19:56:38;1048.2;;;10.6;46.8
76044;BME280;64740;34.694;33.088;2023-02-13T20:01:45;1048.2;;;10.6;46.8
76044;BME280;64740;34.694;33.088;2023-02-13T20:06:39;1048.2;;;10.6;47
76044;BME280;64740;34.694;33.088;2023-02-13T20:11:14;1048.1;;;10.6;46.8
76044;BME280;64740;34.694;33.088;2023-02-13T20:16:35;1048.1;;;10.5;46.9
76044;BME280;64740;34.694;33.088;2023-02-13T20:21:43;1048;;;10.5;47.1
76044;BME280;64740;34.694;33.088;2023-02-13T20:26:25;1048;;;10.5;47.3
76044;BME280;64740;34.694;33.088;2023-02-13T20:31:43;1048;;;10.4;47.3
76044;BME280;64740;34.694;33.088;2023-02-13T20:36:14;1048;;;10.5;47.2
76044;BME280;64740;34.694;33.088;2023-02-13T20:42:01;1048;;;10.5;47
76044;BME280;64740;34.694;33.088;2023-02-13T20:46:38;1048;;;10.5;47.1
76044;BME280;64740;34.694;33.088;2023-02-13T20:51:37;1048;;;10.5;47.3
76044;BME280;64740;34.694;33.088;2023-02-13T20:56:43;1048;;;10.4;47.7
76044;BME280;64740;34.694;33.088;2023-02-13T21:01:14;1047.9;;;10.4;47.8
76044;BME280;64740;34.694;33.088;2023-02-13T21:06:26;1047.9;;;10.3;48
76044;BME280;64740;34.694;33.088;2023-02-13T21:11:23;1047.9;;;10.4;48.1
76044;BME280;64740;34.694;33.088;2023-02-13T21:16:47;1047.8;;;10.4;47.9
76044;BME280;64740;34.694;33.088;2023-02-13T21:21:26;1047.8;;;10.4;47.9
76044;BME280;64740;34.694;33.088;2023-02-13T21:26:47;1047.8;;;10.4;47.8
76044;BME280;64740;34.694;33.088;2023-02-13T21:31:22;1047.7;;;10.4;47.8
76044;BME280;64740;34.694;33.088;2023-02-13T21:36:57;1047.7;;;10.4;47.7
76044;BME280;64740;34.694;33.088;2023-02-13T21:41:47;1047.7;;;10.4;47.5
76044;BME280;64740;34.694;33.088;2023-02-13T21:46:47;1047.7;;;10.8;47.1
76044;BME280;64740;34.694;33.088;2023-02-13T21:51:59;1047.6;;;11.3;46.5
76044;BME280;64740;34.694;33.088;2023-02-13T21:56:36;1047.6;;;11.8;46.3
76044;BME280;64740;34.694;33.088;2023-02-13T22:01:49;1047.5;;;12.2;45.4
76044;BME280;64740;34.694;33.088;2023-02-13T22:06:38;1047.5;;;12.5;45.1
76044;BME280;64740;34.694;33.088;2023-02-13T22:12:01;1047.5;;;12.7;44.7
76044;BME280;64740;34.694;33.088;2023-02-13T22:16:25;1047.5;;;12.9;44.6
76044;BME280;64740;34.694;33.088;2023-02-13T22:21:59;1047.4;;;13.2;44.4
76044;BME280;64740;34.694;33.088;2023-02-13T22:26:24;1047.3;;;13.4;43.7
76044;BME280;64740;34.694;33.088;2023-02-13T22:31:57;1047.3;;;13.5;43.5
76044;BME280;64740;34.694;33.088;2023-02-13T22:36:13;1047.2;;;13.5;42.8
76044;BME280;64740;34.694;33.088;2023-02-13T22:42:01;1047.2;;;13.5;42.8
76044;BME280;64740;34.694;33.088;2023-02-13T22:46:37;1047.2;;;13.5;42.8
76044;BME280;64740;34.694;33.088;2023-02-13T22:51:37;1047.1;;;13.6;42.9
76044;BME280;64740;34.694;33.088;2023-02-13T22:56:59;1047.1;;;13.7;42.6
76044;BME280;64740;34.694;33.088;2023-02-13T23:01:35;1047.1;;;13.7;42.4
76044;BME280;64740;34.694;33.088;2023-02-13T23:06:49;1047.1;;;13.6;42
76044;BME280;64740;34.694;33.088;2023-02-13T23:11:57;1047.1;;;13.6;42
76044;BME280;64740;34.694;33.088;2023-02-13T23:16:57;1047;;;13.6;42.1
76044;BME280;64740;34.694;33.088;2023-02-13T23:21:39;1047;;;13.6;41.7
76044;BME280;64740;34.694;33.088;2023-02-13T23:26:41;1047;;;13.6;41.5
76044;BME280;64740;34.694;33.088;2023-02-13T23:31:43;1046.9;;;13.6;41.6
76044;BME280;64740;34.694;33.088;2023-02-13T23:36:27;1046.8;;;13.7;41.4
76044;BME280;64740;34.694;33.088;2023-02-13T23:41:37;1046.8;;;13.7;41.2
76044;BME280;64740;34.694;33.088;2023-02-13T23:46:35;1046.8;;;13.8;41.1
76044;BME280;64740;34.694;33.088;2023-02-13T23:51:13;1046.8;;;13.8;40.7
76044;BME280;64740;34.694;33.088;2023-02-13T23:56:35;1046.7;;;13.8;40.6
